createdAt,value
2018-07-16T00:00:13.164Z,30.00
2018-07-16T00:00:50.766Z,30.00
2018-07-16T00:01:26.209Z,30.00
2018-07-16T00:02:01.444Z,30.00
2018-07-16T00:02:36.841Z,30.00
2018-07-16T00:03:12.160Z,30.00
2018-07-16T00:03:47.705Z,65.30
2018-07-16T00:04:23.258Z,75.00
2018-07-16T00:04:58.673Z,89.69
2018-07-16T00:05:34.400Z,75.00
2018-07-16T00:06:09.510Z,75.00
2018-07-16T00:06:44.857Z,75.00
2018-07-16T00:07:19.958Z,75.00
2018-07-16T00:07:55.205Z,75.00
2018-07-16T00:08:30.501Z,75.00
2018-07-16T00:09:06.365Z,75.00
2018-07-16T00:09:41.802Z,76.32
2018-07-16T00:10:17.229Z,79.30
2018-07-16T00:10:54.126Z,210.72
2018-07-16T00:11:29.874Z,210.00
2018-07-16T00:12:05.391Z,210.00
2018-07-16T00:12:40.846Z,210.00
2018-07-16T00:13:15.870Z,210.00
2018-07-16T00:13:51.509Z,210.00
2018-07-16T00:14:26.818Z,210.00
2018-07-16T00:15:02.281Z,210.00
2018-07-16T00:15:37.974Z,210.00
2018-07-16T00:16:13.009Z,210.00
2018-07-16T00:16:48.919Z,210.00
2018-07-16T00:17:24.153Z,211.32
2018-07-16T00:17:59.428Z,206.45
2018-07-16T00:18:34.824Z,165.00
2018-07-16T00:19:10.449Z,165.00
2018-07-16T00:19:45.891Z,164.95
2018-07-16T00:20:21.241Z,165.00
2018-07-16T00:20:56.873Z,165.00
2018-07-16T00:21:32.168Z,165.00
2018-07-16T00:22:07.610Z,165.00
2018-07-16T00:22:44.826Z,173.77
2018-07-16T00:23:20.239Z,121.45
2018-07-16T00:23:55.744Z,120.00
2018-07-16T00:24:31.079Z,120.00
2018-07-16T00:25:06.416Z,120.00
2018-07-16T00:25:41.730Z,120.00
2018-07-16T00:26:17.219Z,120.00
2018-07-16T00:26:52.446Z,120.00
2018-07-16T00:27:27.742Z,120.00
2018-07-16T00:28:03.090Z,120.00
2018-07-16T00:28:38.229Z,120.00
2018-07-16T00:29:13.448Z,74.89
2018-07-16T00:29:49.406Z,345.00
2018-07-16T00:30:24.954Z,345.00
2018-07-16T00:31:00.859Z,80.48
2018-07-16T00:31:36.191Z,166.00
2018-07-16T00:32:11.189Z,210.00
2018-07-16T00:32:46.631Z,210.00
2018-07-16T00:33:21.943Z,210.00
2018-07-16T00:33:57.650Z,210.00
2018-07-16T00:34:33.071Z,210.00
2018-07-16T00:35:08.549Z,165.00
2018-07-16T00:35:44.742Z,165.00
2018-07-16T00:36:19.996Z,165.00
2018-07-16T00:36:55.725Z,165.00
2018-07-16T00:37:31.146Z,165.00
2018-07-16T00:38:06.550Z,174.82
2018-07-16T00:38:42.473Z,120.00
2018-07-16T00:39:17.869Z,120.00
2018-07-16T00:39:53.029Z,120.00
2018-07-16T00:40:28.330Z,120.00
2018-07-16T00:41:03.879Z,120.00
2018-07-16T00:41:39.374Z,120.00
2018-07-16T00:42:14.804Z,120.00
2018-07-16T00:42:50.525Z,120.48
2018-07-16T00:43:25.574Z,120.00
2018-07-16T00:44:00.773Z,120.00
2018-07-16T00:44:36.197Z,120.00
2018-07-16T00:45:11.849Z,120.00
2018-07-16T00:45:48.014Z,120.00
2018-07-16T00:46:23.821Z,120.25
2018-07-16T00:46:59.075Z,192.23
2018-07-16T00:47:34.366Z,210.00
2018-07-16T00:48:09.718Z,210.00
2018-07-16T00:48:45.115Z,210.00
2018-07-16T00:49:20.645Z,210.00
2018-07-16T00:49:55.898Z,210.00
2018-07-16T00:50:31.112Z,210.00
2018-07-16T00:51:06.430Z,84.70
2018-07-16T00:51:41.950Z,75.00
2018-07-16T00:52:17.784Z,75.00
2018-07-16T00:52:53.290Z,75.00
2018-07-16T00:53:28.447Z,75.00
2018-07-16T00:54:03.677Z,75.00
2018-07-16T00:54:39.081Z,331.93
2018-07-16T00:55:14.340Z,300.00
2018-07-16T00:55:50.010Z,300.00
2018-07-16T00:56:25.445Z,262.46
2018-07-16T00:57:00.519Z,165.00
2018-07-16T00:57:36.389Z,165.00
2018-07-16T00:58:11.508Z,173.38
2018-07-16T00:58:46.768Z,255.00
2018-07-16T00:59:22.479Z,255.00
2018-07-16T00:59:57.935Z,255.00
2018-07-16T01:00:33.261Z,255.00
2018-07-16T01:01:10.924Z,121.32
2018-07-16T01:01:46.132Z,120.25
2018-07-16T01:02:21.596Z,120.00
2018-07-16T01:02:57.111Z,120.00
2018-07-16T01:03:32.574Z,120.00
2018-07-16T01:04:08.080Z,120.00
2018-07-16T01:04:43.834Z,120.00
2018-07-16T01:05:19.243Z,120.00
2018-07-16T01:05:54.871Z,120.00
2018-07-16T01:06:30.479Z,120.00
2018-07-16T01:07:05.925Z,120.00
2018-07-16T01:07:41.366Z,120.00
2018-07-16T01:08:17.849Z,120.00
2018-07-16T01:08:53.493Z,124.69
2018-07-16T01:09:28.921Z,218.36
2018-07-16T01:10:04.365Z,210.00
2018-07-16T01:10:42.516Z,210.00
2018-07-16T01:11:17.620Z,165.00
2018-07-16T01:11:53.057Z,165.00
2018-07-16T01:12:28.443Z,165.00
2018-07-16T01:13:03.789Z,198.83
2018-07-16T01:13:39.108Z,210.00
2018-07-16T01:14:14.854Z,210.00
2018-07-16T01:14:50.304Z,210.00
2018-07-16T01:15:25.668Z,210.00
2018-07-16T01:16:01.008Z,210.00
2018-07-16T01:16:36.466Z,165.00
2018-07-16T01:17:11.774Z,165.00
2018-07-16T01:17:47.134Z,165.00
2018-07-16T01:18:22.649Z,174.70
2018-07-16T01:18:58.662Z,210.00
2018-07-16T01:19:33.878Z,210.00
2018-07-16T01:20:09.380Z,210.00
2018-07-16T01:20:46.506Z,123.99
2018-07-16T01:21:21.851Z,120.00
2018-07-16T01:21:57.645Z,146.40
2018-07-16T01:22:32.908Z,300.00
2018-07-16T01:23:07.918Z,300.00
2018-07-16T01:23:43.239Z,300.00
2018-07-16T01:24:20.129Z,300.00
2018-07-16T01:24:55.672Z,300.00
2018-07-16T01:25:30.874Z,275.41
2018-07-16T01:26:06.207Z,210.00
2018-07-16T01:26:41.513Z,210.00
2018-07-16T01:27:16.650Z,210.00
2018-07-16T01:27:52.182Z,210.00
2018-07-16T01:28:29.038Z,210.00
2018-07-16T01:29:05.352Z,210.00
2018-07-16T01:29:41.811Z,210.00
2018-07-16T01:30:17.117Z,210.00
2018-07-16T01:30:52.846Z,210.00
2018-07-16T01:31:28.307Z,210.00
2018-07-16T01:32:03.906Z,170.42
2018-07-16T01:32:40.092Z,210.00
2018-07-16T01:33:15.075Z,210.00
2018-07-16T01:33:50.582Z,210.00
2018-07-16T01:34:26.229Z,210.00
2018-07-16T01:35:01.556Z,210.00
2018-07-16T01:35:38.006Z,210.00
2018-07-16T01:36:13.438Z,210.00
2018-07-16T01:36:49.482Z,210.00
2018-07-16T01:37:24.895Z,210.00
2018-07-16T01:38:00.035Z,210.00
2018-07-16T01:38:35.429Z,210.00
2018-07-16T01:39:10.864Z,210.00
2018-07-16T01:39:48.219Z,210.00
2018-07-16T01:40:23.449Z,210.00
2018-07-16T01:40:59.066Z,210.00
2018-07-16T01:41:34.151Z,210.00
2018-07-16T01:42:09.783Z,210.00
2018-07-16T01:42:45.580Z,210.00
2018-07-16T01:43:20.907Z,210.00
2018-07-16T01:43:56.116Z,210.00
2018-07-16T01:44:32.173Z,210.00
2018-07-16T01:45:07.819Z,210.00
2018-07-16T01:45:43.772Z,210.00
2018-07-16T01:46:19.058Z,210.00
2018-07-16T01:46:54.490Z,210.00
2018-07-16T01:47:30.150Z,210.00
2018-07-16T01:48:05.481Z,210.00
2018-07-16T01:48:41.179Z,210.00
2018-07-16T01:49:16.817Z,210.00
2018-07-16T01:49:52.050Z,210.00
2018-07-16T01:50:27.281Z,210.00
2018-07-16T01:51:02.849Z,210.00
2018-07-16T01:51:38.825Z,210.00
2018-07-16T01:52:13.959Z,210.00
2018-07-16T01:52:49.891Z,210.00
2018-07-16T01:53:25.642Z,210.00
2018-07-16T01:54:01.341Z,210.00
2018-07-16T01:54:36.962Z,210.00
2018-07-16T01:55:12.190Z,210.00
2018-07-16T01:55:48.144Z,210.00
2018-07-16T01:56:23.256Z,196.81
2018-07-16T01:56:58.686Z,210.00
2018-07-16T01:57:34.304Z,210.00
2018-07-16T01:58:09.722Z,210.00
2018-07-16T01:58:46.150Z,210.00
2018-07-16T01:59:21.402Z,210.00
2018-07-16T01:59:56.659Z,210.00
2018-07-16T02:00:31.969Z,210.00
2018-07-16T02:01:07.282Z,210.00
2018-07-16T02:01:42.398Z,210.00
2018-07-16T02:02:17.426Z,210.00
2018-07-16T02:02:52.632Z,210.00
2018-07-16T02:03:28.076Z,210.00
2018-07-16T02:04:03.300Z,210.00
2018-07-16T02:04:38.928Z,210.00
2018-07-16T02:05:14.295Z,173.10
2018-07-16T02:05:50.176Z,211.32
2018-07-16T02:06:25.644Z,210.00
2018-07-16T02:07:01.060Z,210.00
2018-07-16T02:07:36.503Z,210.00
2018-07-16T02:08:12.094Z,210.00
2018-07-16T02:08:50.658Z,210.00
2018-07-16T02:09:25.995Z,210.00
2018-07-16T02:10:01.482Z,246.68
2018-07-16T02:10:36.884Z,210.00
2018-07-16T02:11:12.106Z,210.00
2018-07-16T02:11:47.098Z,210.00
2018-07-16T02:12:22.532Z,210.00
2018-07-16T02:13:03.679Z,210.00
2018-07-16T02:13:41.376Z,210.00
2018-07-16T02:14:22.097Z,207.16
2018-07-16T02:14:59.778Z,247.19
2018-07-16T02:17:37.229Z,210.00
2018-07-16T02:18:12.637Z,210.00
2018-07-16T02:18:51.144Z,127.80
2018-07-16T02:19:26.575Z,168.83
2018-07-16T02:20:04.081Z,165.00
2018-07-16T02:20:39.602Z,165.05
2018-07-16T02:21:14.812Z,75.00
2018-07-16T02:21:50.240Z,75.00
2018-07-16T02:22:25.522Z,171.96
2018-07-16T02:23:00.755Z,185.61
2018-07-16T02:23:36.148Z,175.26
2018-07-16T02:24:11.376Z,259.03
2018-07-16T02:24:46.977Z,255.00
2018-07-16T02:25:22.482Z,255.00
2018-07-16T02:25:58.053Z,181.76
2018-07-16T02:26:33.450Z,184.27
2018-07-16T02:27:08.420Z,236.12
2018-07-16T02:27:43.939Z,255.00
2018-07-16T02:28:19.311Z,255.00
2018-07-16T02:28:54.609Z,255.00
2018-07-16T02:29:30.199Z,210.00
2018-07-16T02:30:05.959Z,210.00
2018-07-16T02:30:42.027Z,210.00
2018-07-16T02:31:17.333Z,210.00
2018-07-16T02:31:53.028Z,210.00
2018-07-16T02:32:28.029Z,210.00
2018-07-16T02:33:03.602Z,210.00
2018-07-16T02:33:39.151Z,210.00
2018-07-16T02:34:14.344Z,210.00
2018-07-16T02:34:51.526Z,210.00
2018-07-16T02:35:26.799Z,210.00
2018-07-16T02:36:02.300Z,227.20
2018-07-16T02:36:37.767Z,345.00
2018-07-16T02:37:13.256Z,351.85
2018-07-16T02:37:48.665Z,230.06
2018-07-16T02:38:24.178Z,255.00
2018-07-16T02:38:59.758Z,255.00
2018-07-16T02:39:35.146Z,223.43
2018-07-16T02:40:10.555Z,189.75
2018-07-16T02:40:48.854Z,164.95
2018-07-16T02:41:24.352Z,165.00
2018-07-16T02:41:59.369Z,165.00
2018-07-16T02:42:34.554Z,196.66
2018-07-16T02:43:10.088Z,210.00
2018-07-16T02:43:45.191Z,210.00
2018-07-16T02:44:20.308Z,210.00
2018-07-16T02:44:55.953Z,210.00
2018-07-16T02:45:31.495Z,210.00
2018-07-16T02:46:06.612Z,174.93
2018-07-16T02:46:42.129Z,78.41
2018-07-16T02:47:18.123Z,225.49
2018-07-16T02:47:53.852Z,120.00
2018-07-16T02:48:28.857Z,191.39
2018-07-16T02:49:04.075Z,177.63
2018-07-16T02:49:41.153Z,288.86
2018-07-16T02:50:16.744Z,330.84
2018-07-16T02:50:52.743Z,219.96
2018-07-16T02:51:28.172Z,210.00
2018-07-16T02:52:03.354Z,210.00
2018-07-16T02:52:38.991Z,210.00
2018-07-16T02:53:14.694Z,210.00
2018-07-16T02:53:50.124Z,210.00
2018-07-16T02:54:25.326Z,261.97
2018-07-16T02:55:00.759Z,331.13
2018-07-16T02:55:35.937Z,207.07
2018-07-16T02:56:11.282Z,213.41
2018-07-16T02:56:47.481Z,220.67
2018-07-16T02:57:22.827Z,210.00
2018-07-16T02:57:58.185Z,210.00
2018-07-16T02:58:33.363Z,210.00
2018-07-16T02:59:09.186Z,210.00
2018-07-16T02:59:45.319Z,210.00
2018-07-16T03:00:20.627Z,210.00
2018-07-16T03:01:00.824Z,210.00
2018-07-16T03:01:36.091Z,210.00
2018-07-16T03:02:11.305Z,210.00
2018-07-16T03:02:47.387Z,210.00
2018-07-16T03:03:22.630Z,210.00
2018-07-16T03:03:58.250Z,196.96
2018-07-16T03:04:33.971Z,210.00
2018-07-16T03:05:09.281Z,210.00
2018-07-16T03:05:47.607Z,210.00
2018-07-16T03:06:23.091Z,233.27
2018-07-16T03:06:58.395Z,255.00
2018-07-16T03:07:33.886Z,255.00
2018-07-16T03:08:09.186Z,255.00
2018-07-16T03:08:44.579Z,255.00
2018-07-16T03:09:19.917Z,240.86
2018-07-16T03:09:55.442Z,210.00
2018-07-16T03:10:30.745Z,210.00
2018-07-16T03:11:06.248Z,210.00
2018-07-16T03:11:41.748Z,125.88
2018-07-16T03:12:17.247Z,300.00
2018-07-16T03:12:52.804Z,345.00
2018-07-16T03:13:28.175Z,345.00
2018-07-16T03:14:03.384Z,345.00
2018-07-16T03:14:39.185Z,228.63
2018-07-16T03:15:15.016Z,152.16
2018-07-16T03:15:53.102Z,121.32
2018-07-16T03:16:28.313Z,207.20
2018-07-16T03:17:03.740Z,220.69
2018-07-16T03:17:39.124Z,210.00
2018-07-16T03:18:14.587Z,227.16
2018-07-16T03:18:49.768Z,210.00
2018-07-16T03:19:24.981Z,201.54
2018-07-16T03:20:00.621Z,255.00
2018-07-16T03:20:35.924Z,206.91
2018-07-16T03:21:11.129Z,210.00
2018-07-16T03:21:46.446Z,210.00
2018-07-16T03:22:21.721Z,205.95
2018-07-16T03:22:57.164Z,197.91
2018-07-16T03:23:32.780Z,210.00
2018-07-16T03:24:08.020Z,210.00
2018-07-16T03:24:43.734Z,210.00
2018-07-16T03:25:19.060Z,189.05
2018-07-16T03:25:54.547Z,210.00
2018-07-16T03:26:29.764Z,210.00
2018-07-16T03:27:05.041Z,210.00
2018-07-16T03:27:40.349Z,210.00
2018-07-16T03:28:15.558Z,210.00
2018-07-16T03:28:51.497Z,318.36
2018-07-16T03:29:26.886Z,171.77
2018-07-16T03:30:02.117Z,223.46
2018-07-16T03:30:37.384Z,120.00
2018-07-16T03:31:12.796Z,116.65
2018-07-16T03:31:48.072Z,120.00
2018-07-16T03:32:23.310Z,216.18
2018-07-16T03:32:58.583Z,210.00
2018-07-16T03:33:34.207Z,210.00
2018-07-16T03:34:09.377Z,210.00
2018-07-16T03:34:45.528Z,210.00
2018-07-16T03:35:20.798Z,210.00
2018-07-16T03:35:57.526Z,207.40
2018-07-16T03:36:32.636Z,205.50
2018-07-16T03:37:08.135Z,210.00
2018-07-16T03:37:43.272Z,210.00
2018-07-16T03:38:18.577Z,71.15
2018-07-16T03:38:54.290Z,128.24
2018-07-16T03:39:29.686Z,217.07
2018-07-16T03:40:05.021Z,210.00
2018-07-16T03:40:43.063Z,210.00
2018-07-16T03:41:18.255Z,210.00
2018-07-16T03:41:53.882Z,210.00
2018-07-16T03:42:29.363Z,210.00
2018-07-16T03:43:05.089Z,210.00
2018-07-16T03:43:40.477Z,210.00
2018-07-16T03:44:15.696Z,252.98
2018-07-16T03:44:50.825Z,255.00
2018-07-16T03:45:26.116Z,255.00
2018-07-16T03:46:03.695Z,255.00
2018-07-16T03:46:38.917Z,255.00
2018-07-16T03:47:14.629Z,255.00
2018-07-16T03:47:52.451Z,234.80
2018-07-16T03:48:27.632Z,210.00
2018-07-16T03:49:03.393Z,210.00
2018-07-16T03:49:38.498Z,210.00
2018-07-16T03:50:14.055Z,210.00
2018-07-16T03:50:51.132Z,210.00
2018-07-16T03:51:26.260Z,210.00
2018-07-16T03:52:03.270Z,196.49
2018-07-16T03:52:39.198Z,225.64
2018-07-16T03:53:14.484Z,103.65
2018-07-16T03:53:49.732Z,120.00
2018-07-16T03:54:25.376Z,120.00
2018-07-16T03:55:00.749Z,120.00
2018-07-16T03:55:35.916Z,136.89
2018-07-16T03:56:11.314Z,210.00
2018-07-16T03:56:46.515Z,207.34
2018-07-16T03:57:21.826Z,216.30
2018-07-16T03:57:57.039Z,126.05
2018-07-16T03:58:32.832Z,232.55
2018-07-16T03:59:08.055Z,210.00
2018-07-16T03:59:43.649Z,210.00
2018-07-16T04:00:18.964Z,210.00
2018-07-16T04:00:54.446Z,210.00
2018-07-16T04:01:30.048Z,210.00
2018-07-16T04:02:05.421Z,210.00
2018-07-16T04:02:40.800Z,210.00
2018-07-16T04:03:16.407Z,214.03
2018-07-16T04:03:51.601Z,254.92
2018-07-16T04:04:26.832Z,215.42
2018-07-16T04:05:02.261Z,210.00
2018-07-16T04:05:37.784Z,210.00
2018-07-16T04:06:13.186Z,210.00
2018-07-16T04:06:48.903Z,210.00
2018-07-16T04:07:23.995Z,210.00
2018-07-16T04:08:01.000Z,166.27
2018-07-16T04:08:36.740Z,165.00
2018-07-16T04:09:11.949Z,169.44
2018-07-16T04:09:47.600Z,242.92
2018-07-16T04:10:22.925Z,136.13
2018-07-16T04:10:58.323Z,120.00
2018-07-16T04:11:33.547Z,120.00
2018-07-16T04:12:08.812Z,120.00
2018-07-16T04:12:44.038Z,120.00
2018-07-16T04:13:19.145Z,120.00
2018-07-16T04:13:55.355Z,120.00
2018-07-16T04:14:30.939Z,120.00
2018-07-16T04:15:06.185Z,120.00
2018-07-16T04:15:43.090Z,111.74
2018-07-16T04:16:18.691Z,182.74
2018-07-16T04:16:54.196Z,210.00
2018-07-16T04:17:29.406Z,210.00
2018-07-16T04:18:05.225Z,210.00
2018-07-16T04:18:40.734Z,205.29
2018-07-16T04:19:16.055Z,196.81
2018-07-16T04:19:51.350Z,182.16
2018-07-16T04:20:26.664Z,179.16
2018-07-16T04:21:04.262Z,215.39
2018-07-16T04:21:39.573Z,210.00
2018-07-16T04:22:14.900Z,210.00
2018-07-16T04:22:50.519Z,97.15
2018-07-16T04:23:25.998Z,217.59
2018-07-16T04:24:02.414Z,210.00
2018-07-16T04:24:37.695Z,210.00
2018-07-16T04:25:13.250Z,210.00
2018-07-16T04:25:48.538Z,210.00
2018-07-16T04:26:23.666Z,210.00
2018-07-16T04:26:59.955Z,210.00
2018-07-16T04:27:35.175Z,210.00
2018-07-16T04:28:10.756Z,210.00
2018-07-16T04:28:46.278Z,210.00
2018-07-16T04:29:21.677Z,210.00
2018-07-16T04:29:57.105Z,210.00
2018-07-16T04:30:32.611Z,210.00
2018-07-16T04:31:08.535Z,210.00
2018-07-16T04:31:43.931Z,200.30
2018-07-16T04:32:19.034Z,210.00
2018-07-16T04:32:54.313Z,230.99
2018-07-16T04:33:29.525Z,256.91
2018-07-16T04:34:04.858Z,75.00
2018-07-16T04:34:40.767Z,105.86
2018-07-16T04:35:16.250Z,120.00
2018-07-16T04:35:51.440Z,142.26
2018-07-16T04:36:26.848Z,210.00
2018-07-16T04:37:02.142Z,210.00
2018-07-16T04:37:37.867Z,210.00
2018-07-16T04:38:13.037Z,210.00
2018-07-16T04:38:48.348Z,210.00
2018-07-16T04:39:24.758Z,210.00
2018-07-16T04:40:00.152Z,208.40
2018-07-16T04:40:35.055Z,74.25
2018-07-16T04:41:11.199Z,114.58
2018-07-16T04:41:46.279Z,120.25
2018-07-16T04:42:21.598Z,120.00
2018-07-16T04:42:58.606Z,120.00
2018-07-16T04:43:33.999Z,120.00
2018-07-16T04:44:09.424Z,120.00
2018-07-16T04:44:45.349Z,120.00
2018-07-16T04:45:20.970Z,120.00
2018-07-16T04:45:56.166Z,120.00
2018-07-16T04:46:31.480Z,120.00
2018-07-16T04:47:06.873Z,112.48
2018-07-16T04:47:42.482Z,210.00
2018-07-16T04:48:17.485Z,210.00
2018-07-16T04:48:54.113Z,210.00
2018-07-16T04:49:29.243Z,229.63
2018-07-16T04:50:04.670Z,211.32
2018-07-16T04:50:42.081Z,210.00
2018-07-16T04:51:17.839Z,210.00
2018-07-16T04:51:53.420Z,224.93
2018-07-16T04:52:28.537Z,255.00
2018-07-16T04:53:03.931Z,229.47
2018-07-16T04:53:39.272Z,175.45
2018-07-16T04:54:14.560Z,193.99
2018-07-16T04:54:49.901Z,232.22
2018-07-16T04:55:25.091Z,255.00
2018-07-16T04:56:01.207Z,245.26
2018-07-16T04:56:36.625Z,210.00
2018-07-16T04:57:12.141Z,210.00
2018-07-16T04:57:49.333Z,210.00
2018-07-16T04:58:24.862Z,210.00
2018-07-16T04:59:00.373Z,231.23
2018-07-16T04:59:36.004Z,213.41
2018-07-16T05:00:11.421Z,206.42
2018-07-16T05:00:49.571Z,155.30
2018-07-16T05:01:25.043Z,121.32
2018-07-16T05:02:00.255Z,170.10
2018-07-16T05:02:35.449Z,210.00
2018-07-16T05:03:10.833Z,210.00
2018-07-16T05:03:46.269Z,210.00
2018-07-16T05:04:21.603Z,210.00
2018-07-16T05:04:57.125Z,210.00
2018-07-16T05:05:32.564Z,201.66
2018-07-16T05:06:07.875Z,142.11
2018-07-16T05:06:43.612Z,216.57
2018-07-16T05:07:18.713Z,189.26
2018-07-16T05:07:54.037Z,165.00
2018-07-16T05:08:29.646Z,165.00
2018-07-16T05:09:04.973Z,128.26
2018-07-16T05:09:41.481Z,120.00
2018-07-16T05:10:17.017Z,110.30
2018-07-16T05:10:52.827Z,0.90
2018-07-16T05:11:28.246Z,171.89
2018-07-16T05:12:03.565Z,162.94
2018-07-16T05:12:38.905Z,165.00
2018-07-16T05:13:14.331Z,165.00
2018-07-16T05:13:49.561Z,165.00
2018-07-16T05:14:24.746Z,165.00
2018-07-16T05:15:00.239Z,295.07
2018-07-16T05:15:35.536Z,118.25
2018-07-16T05:16:10.797Z,120.00
2018-07-16T05:16:46.255Z,51.77
2018-07-16T05:17:21.563Z,75.00
2018-07-16T05:17:58.908Z,70.82
2018-07-16T05:18:34.585Z,89.43
2018-07-16T05:19:09.799Z,4.41
2018-07-16T05:19:48.893Z,234.76
2018-07-16T05:20:24.082Z,93.61
2018-07-16T05:20:59.289Z,121.80
2018-07-16T05:21:36.188Z,134.86
2018-07-16T05:22:11.732Z,125.54
2018-07-16T05:22:47.525Z,241.07
2018-07-16T05:23:23.039Z,86.95
2018-07-16T05:23:58.576Z,126.18
2018-07-16T05:24:33.993Z,120.00
2018-07-16T05:25:09.417Z,120.00
2018-07-16T05:25:47.373Z,81.18
2018-07-16T05:26:22.871Z,89.34
2018-07-16T05:26:58.194Z,125.38
2018-07-16T05:27:36.714Z,49.39
2018-07-16T05:28:12.158Z,16.31
2018-07-16T05:28:49.546Z,52.09
2018-07-16T05:29:25.054Z,141.52
2018-07-16T05:30:00.326Z,69.64
2018-07-16T05:30:35.576Z,41.23
2018-07-16T05:31:14.019Z,67.98
2018-07-16T05:31:49.584Z,83.36
2018-07-16T05:32:24.889Z,63.61
2018-07-16T05:33:00.147Z,30.78
2018-07-16T05:33:35.350Z,80.46
2018-07-16T05:34:10.954Z,210.00
2018-07-16T05:34:46.067Z,214.52
2018-07-16T05:35:21.508Z,153.31
2018-07-16T05:36:00.117Z,95.48
2018-07-16T05:36:35.461Z,59.19
2018-07-16T05:37:10.891Z,97.64
2018-07-16T05:37:46.518Z,94.47
2018-07-16T05:38:21.529Z,122.66
2018-07-16T05:38:57.344Z,125.13
2018-07-16T05:39:32.641Z,94.09
2018-07-16T05:40:08.187Z,117.84
2018-07-16T05:40:45.193Z,65.30
2018-07-16T05:41:20.917Z,91.90
2018-07-16T05:41:56.049Z,126.99
2018-07-16T05:42:31.371Z,210.00
2018-07-16T05:43:06.645Z,186.50
2018-07-16T05:43:42.060Z,77.23
2018-07-16T05:44:17.469Z,104.16
2018-07-16T05:44:52.803Z,219.25
2018-07-16T05:45:27.982Z,27.33
2018-07-16T05:46:03.820Z,74.19
2018-07-16T05:46:39.312Z,186.11
2018-07-16T05:47:14.936Z,78.44
2018-07-16T05:47:50.349Z,79.12
2018-07-16T05:48:25.496Z,132.63
2018-07-16T05:49:00.683Z,242.03
2018-07-16T05:49:36.414Z,216.85
2018-07-16T05:50:11.932Z,208.77
2018-07-16T05:50:47.690Z,114.58
2018-07-16T05:51:23.117Z,118.92
2018-07-16T05:51:58.837Z,39.23
2018-07-16T05:52:34.431Z,59.16
2018-07-16T05:53:09.958Z,41.22
2018-07-16T05:53:45.874Z,234.11
2018-07-16T05:54:21.121Z,85.54
2018-07-16T05:54:56.606Z,210.00
2018-07-16T05:55:31.710Z,49.86
2018-07-16T05:56:07.126Z,65.60
2018-07-16T05:56:42.653Z,125.83
2018-07-16T05:57:17.775Z,88.69
2018-07-16T05:57:53.087Z,224.84
2018-07-16T05:58:28.416Z,30.42
2018-07-16T05:59:04.101Z,63.57
2018-07-16T05:59:39.205Z,61.41
2018-07-16T06:00:14.418Z,73.99
2018-07-16T06:00:49.847Z,227.51
2018-07-16T06:01:25.148Z,256.32
2018-07-16T06:02:00.788Z,65.16
2018-07-16T06:02:35.990Z,49.47
2018-07-16T06:03:11.437Z,39.03
2018-07-16T06:03:46.717Z,57.33
2018-07-16T06:04:22.055Z,76.91
2018-07-16T06:04:57.512Z,191.32
2018-07-16T06:05:32.940Z,176.77
2018-07-16T06:06:08.067Z,64.89
2018-07-16T06:06:45.108Z,49.24
2018-07-16T06:07:20.112Z,49.47
2018-07-16T06:07:56.869Z,84.69
2018-07-16T06:08:32.193Z,77.18
2018-07-16T06:09:07.632Z,45.24
2018-07-16T06:09:43.038Z,55.40
2018-07-16T06:10:18.576Z,78.53
2018-07-16T06:10:56.192Z,60.19
2018-07-16T06:11:31.544Z,31.32
2018-07-16T06:12:06.926Z,63.58
2018-07-16T06:12:43.965Z,53.90
2018-07-16T06:13:19.479Z,63.68
2018-07-16T06:13:58.021Z,63.71
2018-07-16T06:14:33.542Z,55.50
2018-07-16T06:15:09.086Z,47.75
2018-07-16T06:15:46.218Z,72.59
2018-07-16T06:16:21.458Z,45.32
2018-07-16T06:16:56.687Z,56.14
2018-07-16T06:17:31.969Z,56.66
2018-07-16T06:18:07.174Z,48.08
2018-07-16T06:18:43.103Z,62.60
2018-07-16T06:19:18.609Z,43.22
2018-07-16T06:19:54.798Z,100.17
2018-07-16T06:20:30.096Z,60.95
2018-07-16T06:21:05.727Z,91.12
2018-07-16T06:21:41.018Z,100.36
2018-07-16T06:22:16.332Z,101.11
2018-07-16T06:22:51.751Z,55.52
2018-07-16T06:23:26.960Z,56.27
2018-07-16T06:24:02.564Z,71.96
2018-07-16T06:24:37.935Z,88.69
2018-07-16T06:25:13.088Z,67.79
2018-07-16T06:25:51.684Z,74.40
2018-07-16T06:26:30.216Z,59.49
2018-07-16T06:27:05.534Z,77.40
2018-07-16T06:27:41.296Z,35.05
2018-07-16T06:28:16.506Z,24.77
2018-07-16T06:28:55.163Z,183.68
2018-07-16T06:29:30.761Z,74.20
2018-07-16T06:30:06.035Z,66.61
2018-07-16T06:30:43.405Z,62.19
2018-07-16T06:31:18.858Z,68.49
2018-07-16T06:31:54.665Z,166.46
2018-07-16T06:32:30.158Z,280.65
2018-07-16T06:33:05.521Z,66.74
2018-07-16T06:33:40.752Z,92.33
2018-07-16T06:34:16.147Z,70.34
2018-07-16T06:34:51.704Z,48.00
2018-07-16T06:35:26.910Z,45.54
2018-07-16T06:36:02.530Z,107.15
2018-07-16T06:36:37.942Z,58.19
2018-07-16T06:37:13.461Z,36.42
2018-07-16T06:37:48.774Z,204.00
2018-07-16T06:38:24.215Z,69.99
2018-07-16T06:39:00.320Z,70.57
2018-07-16T06:39:35.774Z,106.72
2018-07-16T06:40:11.014Z,74.67
2018-07-16T06:40:46.754Z,199.17
2018-07-16T06:41:22.200Z,147.54
2018-07-16T06:41:57.134Z,87.72
2018-07-16T06:42:32.400Z,67.48
2018-07-16T06:43:07.541Z,36.99
2018-07-16T06:43:42.937Z,61.09
2018-07-16T06:44:18.159Z,69.78
2018-07-16T06:44:53.373Z,182.91
2018-07-16T06:45:28.602Z,232.32
2018-07-16T06:46:04.803Z,121.78
2018-07-16T06:46:40.161Z,78.66
2018-07-16T06:47:15.468Z,58.15
2018-07-16T06:47:50.970Z,43.89
2018-07-16T06:48:26.383Z,38.77
2018-07-16T06:49:01.915Z,208.77
2018-07-16T06:49:36.931Z,41.37
2018-07-16T06:50:11.984Z,16.27
2018-07-16T06:50:47.080Z,69.18
2018-07-16T06:51:22.430Z,60.80
2018-07-16T06:51:57.651Z,42.75
2018-07-16T06:52:33.082Z,47.99
2018-07-16T06:53:08.595Z,245.83
2018-07-16T06:53:44.023Z,296.81
2018-07-16T06:54:19.407Z,56.81
2018-07-16T06:54:54.595Z,65.92
2018-07-16T06:55:30.128Z,69.37
2018-07-16T06:56:05.477Z,83.43
2018-07-16T06:56:41.636Z,80.82
2018-07-16T06:57:17.161Z,119.84
2018-07-16T06:57:53.057Z,36.64
2018-07-16T06:58:28.612Z,93.28
2018-07-16T06:59:03.918Z,58.52
2018-07-16T06:59:40.585Z,53.71
2018-07-16T07:00:16.218Z,51.81
2018-07-16T07:00:54.561Z,71.50
2018-07-16T07:01:30.174Z,64.12
2018-07-16T07:02:05.526Z,45.40
2018-07-16T07:02:40.830Z,70.25
2018-07-16T07:03:16.672Z,86.65
2018-07-16T07:03:52.165Z,42.27
2018-07-16T07:04:27.981Z,54.43
2018-07-16T07:05:03.716Z,75.84
2018-07-16T07:05:39.752Z,62.82
2018-07-16T07:06:15.297Z,48.82
2018-07-16T07:06:50.774Z,44.43
2018-07-16T07:07:25.783Z,70.55
2018-07-16T07:08:01.343Z,49.41
2018-07-16T07:08:36.651Z,57.07
2018-07-16T07:09:12.276Z,37.31
2018-07-16T07:09:47.617Z,53.04
2018-07-16T07:10:23.148Z,54.58
2018-07-16T07:10:58.415Z,65.24
2018-07-16T07:11:34.120Z,66.31
2018-07-16T07:12:09.456Z,72.47
2018-07-16T07:12:44.885Z,72.61
2018-07-16T07:13:20.213Z,56.78
2018-07-16T07:13:55.650Z,53.97
2018-07-16T07:14:31.159Z,57.99
2018-07-16T07:15:06.531Z,63.98
2018-07-16T07:15:46.541Z,66.11
2018-07-16T07:16:21.925Z,35.32
2018-07-16T07:16:57.211Z,59.15
2018-07-16T07:17:32.435Z,135.46
2018-07-16T07:18:07.599Z,64.05
2018-07-16T07:18:45.790Z,66.21
2018-07-16T07:19:21.102Z,95.67
2018-07-16T07:19:56.388Z,60.29
2018-07-16T07:20:32.295Z,272.19
2018-07-16T07:21:09.042Z,63.04
2018-07-16T07:21:44.438Z,56.44
2018-07-16T07:22:19.683Z,86.60
2018-07-16T07:22:54.780Z,12.62
2018-07-16T07:23:30.097Z,67.06
2018-07-16T07:24:05.614Z,45.88
2018-07-16T07:24:40.939Z,27.64
2018-07-16T07:25:16.532Z,61.24
2018-07-16T07:25:51.685Z,54.92
2018-07-16T07:26:27.505Z,158.01
2018-07-16T07:27:02.936Z,80.36
2018-07-16T07:27:39.544Z,72.10
2018-07-16T07:28:15.536Z,70.83
2018-07-16T07:28:50.832Z,65.63
2018-07-16T07:29:25.864Z,69.54
2018-07-16T07:30:01.005Z,178.06